createdAt,value
2023-04-16T00:00:55.120Z,7.72
2023-04-16T00:03:21.654Z,7.68
2023-04-16T00:05:48.310Z,7.76
2023-04-16T00:08:14.835Z,7.77
2023-04-16T00:10:41.356Z,7.66
2023-04-16T00:13:07.951Z,7.66
2023-04-16T00:15:34.423Z,7.71
2023-04-16T00:18:01.073Z,7.76
2023-04-16T00:20:27.585Z,7.68
2023-04-16T00:22:54.020Z,7.67
2023-04-16T00:25:20.506Z,7.74
2023-04-16T00:27:46.963Z,7.61
2023-04-16T00:30:13.516Z,7.71
2023-04-16T00:32:39.875Z,7.71
2023-04-16T00:35:06.882Z,7.79
2023-04-16T00:37:33.256Z,7.68
2023-04-16T00:39:59.789Z,7.70
2023-04-16T00:42:26.384Z,7.78
2023-04-16T00:44:52.739Z,7.71
2023-04-16T00:47:21.674Z,7.67
2023-04-16T00:49:48.271Z,7.76
2023-04-16T00:52:14.922Z,7.77
2023-04-16T00:54:41.695Z,7.70
2023-04-16T00:57:08.092Z,7.78
2023-04-16T00:59:34.459Z,7.77
2023-04-16T01:02:00.938Z,7.64
2023-04-16T01:04:27.440Z,7.78
2023-04-16T01:06:53.947Z,7.71
2023-04-16T01:09:20.287Z,7.73
2023-04-16T01:11:46.701Z,7.73
2023-04-16T01:14:13.064Z,7.67
2023-04-16T01:16:39.400Z,7.75
2023-04-16T01:19:05.739Z,7.76
2023-04-16T01:21:32.160Z,7.71
2023-04-16T01:24:02.628Z,7.77
2023-04-16T01:26:29.005Z,7.71
2023-04-16T01:28:55.378Z,7.77
2023-04-16T01:31:21.790Z,7.80
2023-04-16T01:33:48.169Z,7.71
2023-04-16T01:36:14.575Z,7.67
2023-04-16T01:38:40.994Z,7.76
2023-04-16T01:41:07.423Z,7.72
2023-04-16T01:43:33.858Z,7.75
2023-04-16T01:46:15.246Z,7.76
2023-04-16T01:48:41.866Z,7.68
2023-04-16T01:51:08.367Z,7.71
2023-04-16T01:53:36.933Z,7.74
2023-04-16T01:56:03.886Z,7.69
2023-04-16T01:58:31.129Z,7.74
2023-04-16T02:00:57.703Z,7.74
2023-04-16T02:03:24.472Z,7.81
2023-04-16T02:05:51.556Z,7.81
2023-04-16T02:08:18.224Z,7.78
2023-04-16T02:10:49.926Z,7.83
2023-04-16T02:13:17.049Z,7.78
2023-04-16T02:15:47.469Z,7.77
2023-04-16T02:18:14.072Z,7.76
2023-04-16T02:20:41.637Z,7.74
2023-04-16T02:23:08.433Z,7.73
2023-04-16T02:25:41.890Z,7.87
2023-04-16T02:28:13.131Z,7.83
2023-04-16T02:30:40.687Z,7.78
2023-04-16T02:33:09.569Z,7.80
2023-04-16T02:35:36.385Z,7.86
2023-04-16T02:38:03.502Z,7.86
2023-04-16T02:40:30.821Z,7.86
2023-04-16T02:42:57.644Z,7.81
2023-04-16T02:45:24.756Z,7.89
2023-04-16T02:47:51.704Z,7.94
2023-04-16T02:50:18.379Z,7.84
2023-04-16T02:52:44.751Z,7.93
2023-04-16T02:55:11.371Z,7.89
2023-04-16T02:57:37.739Z,7.76
2023-04-16T03:00:11.090Z,7.90
2023-04-16T03:02:37.491Z,7.86
2023-04-16T03:05:04.202Z,7.85
2023-04-16T03:07:30.630Z,7.89
2023-04-16T03:09:56.992Z,7.84
2023-04-16T03:12:23.416Z,7.87
2023-04-16T03:14:51.160Z,7.98
2023-04-16T03:17:17.659Z,7.93
2023-04-16T03:19:43.988Z,8.03
2023-04-16T03:22:10.333Z,8.00
2023-04-16T03:24:36.675Z,8.06
2023-04-16T03:27:02.956Z,7.96
2023-04-16T03:29:29.290Z,7.95
2023-04-16T03:31:55.572Z,8.01
2023-04-16T03:34:21.924Z,8.06
2023-04-16T03:36:48.275Z,8.07
2023-04-16T03:39:14.575Z,8.12
2023-04-16T03:41:40.936Z,8.05
2023-04-16T03:44:07.332Z,7.97
2023-04-16T03:46:33.771Z,8.02
2023-04-16T03:49:00.114Z,7.93
2023-04-16T03:51:26.554Z,7.83
2023-04-16T03:53:52.927Z,7.87
2023-04-16T03:56:19.262Z,7.88
2023-04-16T03:58:45.612Z,7.87
2023-04-16T04:01:11.962Z,7.82
2023-04-16T04:03:38.371Z,7.82
2023-04-16T04:06:08.615Z,7.92
2023-04-16T04:08:35.125Z,7.96
2023-04-16T04:11:01.463Z,7.93
2023-04-16T04:13:27.820Z,7.97
2023-04-16T04:15:54.219Z,8.02
2023-04-16T04:18:20.627Z,8.09
2023-04-16T04:20:46.990Z,8.02
2023-04-16T04:23:13.339Z,8.01
2023-04-16T04:25:39.626Z,8.00
2023-04-16T04:28:05.938Z,7.95
2023-04-16T04:30:32.281Z,8.01
2023-04-16T04:32:58.650Z,8.00
2023-04-16T04:35:25.036Z,8.02
2023-04-16T04:37:51.356Z,7.97
2023-04-16T04:40:17.737Z,7.92
2023-04-16T04:42:44.156Z,7.96
2023-04-16T04:45:10.733Z,7.93
2023-04-16T04:47:37.097Z,7.95
2023-04-16T04:50:03.889Z,7.94
2023-04-16T04:52:30.252Z,7.85
2023-04-16T04:54:56.853Z,7.91
2023-04-16T04:57:23.284Z,7.94
2023-04-16T04:59:49.706Z,8.02
2023-04-16T05:02:16.178Z,7.98
2023-04-16T05:04:42.623Z,7.94
2023-04-16T05:07:09.008Z,7.90
2023-04-16T05:09:35.353Z,7.86
2023-04-16T05:12:01.792Z,7.98
2023-04-16T05:14:28.183Z,7.93
2023-04-16T05:16:54.554Z,8.01
2023-04-16T05:19:20.931Z,8.02
2023-04-16T05:21:47.267Z,8.01
2023-04-16T05:24:15.014Z,8.08
2023-04-16T05:26:41.485Z,8.07
2023-04-16T05:29:07.961Z,8.07
2023-04-16T05:31:34.515Z,8.15
2023-04-16T05:34:00.855Z,8.14
2023-04-16T05:36:27.195Z,8.09
2023-04-16T05:38:53.512Z,8.15
2023-04-16T05:41:19.812Z,8.22
2023-04-16T05:43:46.155Z,8.03
2023-04-16T05:46:12.575Z,8.09
2023-04-16T05:48:38.941Z,8.07
2023-04-16T05:51:05.367Z,8.10
2023-04-16T05:53:31.692Z,8.11
2023-04-16T05:55:58.043Z,8.14
2023-04-16T05:58:24.400Z,8.14
2023-04-16T06:00:51.049Z,8.11
2023-04-16T06:03:17.525Z,8.04
2023-04-16T06:05:44.728Z,8.11
2023-04-16T06:08:11.140Z,8.17
2023-04-16T06:10:37.746Z,8.09
2023-04-16T06:13:04.109Z,8.17
2023-04-16T06:15:30.503Z,8.22
2023-04-16T06:18:00.277Z,8.23
2023-04-16T06:20:27.214Z,8.27
2023-04-16T06:22:53.569Z,8.29
2023-04-16T06:25:19.915Z,8.37
2023-04-16T06:27:46.256Z,8.33
2023-04-16T06:30:14.019Z,8.23
2023-04-16T06:32:40.754Z,8.18
2023-04-16T06:35:07.459Z,8.19
2023-04-16T06:37:33.809Z,8.27
2023-04-16T06:40:00.209Z,8.25
2023-04-16T06:42:26.563Z,8.23
2023-04-16T06:44:52.871Z,8.24
2023-04-16T06:47:19.309Z,8.19
2023-04-16T06:49:45.609Z,8.32
2023-04-16T06:52:12.059Z,8.32
2023-04-16T06:54:39.730Z,8.28
2023-04-16T06:57:06.142Z,8.35
2023-04-16T06:59:32.475Z,8.37
2023-04-16T07:01:58.964Z,8.46
2023-04-16T07:04:25.491Z,8.48
2023-04-16T07:06:51.872Z,8.52
2023-04-16T07:09:18.204Z,8.58
2023-04-16T07:11:44.716Z,8.59
2023-04-16T07:14:11.100Z,8.68
2023-04-16T07:16:37.589Z,8.71
2023-04-16T07:19:04.112Z,8.78
2023-04-16T07:21:30.426Z,8.80
2023-04-16T07:23:56.759Z,8.81
2023-04-16T07:26:23.146Z,8.73
2023-04-16T07:28:49.492Z,8.84
2023-04-16T07:31:15.802Z,8.79
2023-04-16T07:33:42.122Z,8.91
2023-04-16T07:36:08.442Z,8.93
2023-04-16T07:38:34.758Z,9.02
2023-04-16T07:41:01.151Z,9.01
2023-04-16T07:43:27.501Z,9.06
2023-04-16T07:45:53.914Z,8.99
2023-04-16T07:48:20.400Z,9.03
2023-04-16T07:50:46.762Z,9.15
2023-04-16T07:53:13.114Z,9.09
2023-04-16T07:55:39.448Z,9.21
2023-04-16T07:58:05.808Z,9.26
2023-04-16T08:00:32.208Z,9.32
2023-04-16T08:02:58.772Z,9.34
2023-04-16T08:05:25.221Z,9.33
2023-04-16T08:07:51.610Z,9.36
2023-04-16T08:10:18.013Z,9.44
2023-04-16T08:12:44.348Z,9.46
2023-04-16T08:15:10.934Z,9.51
2023-04-16T08:17:37.393Z,9.61
2023-04-16T08:20:04.473Z,9.76
2023-04-16T08:22:30.881Z,9.82
2023-04-16T08:24:57.354Z,9.90
2023-04-16T08:27:23.665Z,10.04
2023-04-16T08:29:50.050Z,10.27
2023-04-16T08:32:16.421Z,10.25
2023-04-16T08:34:42.900Z,10.22
2023-04-16T08:37:09.644Z,10.17
2023-04-16T08:39:36.029Z,10.33
2023-04-16T08:42:05.672Z,10.45
2023-04-16T08:44:37.231Z,10.58
2023-04-16T08:47:08.006Z,10.70
2023-04-16T08:49:36.273Z,10.80
2023-04-16T08:52:06.207Z,10.83
2023-04-16T08:54:57.263Z,10.85
2023-04-16T08:57:26.601Z,11.01
2023-04-16T08:59:54.699Z,11.19
2023-04-16T09:02:21.244Z,11.22
2023-04-16T09:04:49.746Z,11.33
2023-04-16T09:07:17.562Z,11.25
2023-04-16T09:09:44.105Z,11.33
2023-04-16T09:12:10.479Z,11.51
2023-04-16T09:14:36.799Z,11.60
2023-04-16T09:17:04.078Z,11.86
2023-04-16T09:19:30.446Z,11.88
2023-04-16T09:21:56.830Z,12.03
2023-04-16T09:24:23.679Z,12.13
2023-04-16T09:26:50.831Z,12.32
2023-04-16T09:29:40.451Z,12.45
2023-04-16T09:32:09.176Z,12.58
2023-04-16T09:34:54.119Z,12.73
2023-04-16T09:37:20.601Z,13.05
2023-04-16T09:39:55.704Z,13.20
2023-04-16T09:42:24.795Z,13.20
2023-04-16T09:44:51.103Z,13.20
2023-04-16T09:47:17.713Z,13.19
2023-04-16T09:49:44.423Z,13.20
2023-04-16T09:52:15.445Z,13.17
2023-04-16T09:54:52.859Z,13.15
2023-04-16T09:57:23.784Z,13.09
2023-04-16T10:00:03.708Z,13.12
2023-04-16T10:02:31.099Z,12.87
2023-04-16T10:04:57.633Z,12.91
2023-04-16T10:07:29.001Z,12.96
2023-04-16T10:09:55.627Z,12.91
2023-04-16T10:12:22.197Z,13.03
2023-04-16T10:14:50.102Z,13.10
2023-04-16T10:17:17.174Z,13.03
2023-04-16T10:19:44.234Z,13.03
2023-04-16T10:22:11.549Z,13.23
2023-04-16T10:24:38.705Z,13.28
2023-04-16T10:27:05.029Z,13.23
2023-04-16T10:29:32.766Z,13.17
2023-04-16T10:31:59.762Z,13.23
2023-04-16T10:34:27.026Z,13.38
2023-04-16T10:36:54.390Z,13.38
2023-04-16T10:39:23.280Z,13.59
2023-04-16T10:41:50.696Z,13.82
2023-04-16T10:44:19.052Z,14.13
2023-04-16T10:46:49.222Z,14.24
2023-04-16T10:49:17.898Z,13.98
2023-04-16T10:51:52.358Z,13.85
2023-04-16T10:54:18.629Z,13.83
2023-04-16T10:56:46.712Z,13.96
2023-04-16T10:59:13.455Z,14.21
2023-04-16T11:01:45.005Z,14.44
2023-04-16T11:04:20.528Z,14.46
2023-04-16T11:07:11.562Z,14.52
2023-04-16T11:09:44.062Z,14.54
2023-04-16T11:12:13.209Z,14.41
2023-04-16T11:14:41.194Z,14.47
2023-04-16T11:17:08.043Z,14.49
2023-04-16T11:19:38.022Z,14.46
2023-04-16T11:22:05.009Z,14.53
2023-04-16T11:24:32.696Z,14.62
2023-04-16T11:26:59.240Z,14.70
2023-04-16T11:29:25.671Z,14.71
2023-04-16T11:31:53.226Z,14.71
2023-04-16T11:34:20.017Z,14.88
2023-04-16T11:36:47.927Z,14.98
2023-04-16T11:39:14.480Z,14.95
2023-04-16T11:41:43.798Z,15.01
2023-04-16T11:44:21.175Z,14.99
2023-04-16T11:46:48.129Z,15.04
2023-04-16T11:49:14.541Z,15.18
2023-04-16T11:51:45.572Z,15.32
2023-04-16T11:54:22.476Z,15.49
2023-04-16T11:56:50.963Z,15.65
2023-04-16T11:59:19.645Z,15.73
2023-04-16T12:01:48.653Z,15.70
2023-04-16T12:04:16.473Z,15.56
2023-04-16T12:07:05.486Z,15.71
2023-04-16T12:09:32.171Z,15.84
2023-04-16T12:11:58.498Z,15.93
2023-04-16T12:14:24.852Z,16.02
2023-04-16T12:16:51.257Z,15.83
2023-04-16T12:19:18.060Z,15.72
2023-04-16T12:21:46.179Z,15.71
2023-04-16T12:24:14.548Z,15.78
2023-04-16T12:26:43.371Z,15.86
2023-04-16T12:29:21.312Z,16.01
2023-04-16T12:31:48.341Z,15.74
2023-04-16T12:34:15.226Z,15.59
2023-04-16T12:36:42.603Z,15.62
2023-04-16T12:39:09.602Z,15.30
2023-04-16T12:41:41.108Z,15.21
2023-04-16T12:44:15.597Z,15.24
2023-04-16T12:46:43.305Z,15.17
2023-04-16T12:49:11.114Z,14.92
2023-04-16T12:51:38.970Z,15.08
2023-04-16T12:54:06.773Z,15.06
2023-04-16T12:56:33.452Z,14.94
2023-04-16T12:58:59.804Z,14.74
2023-04-16T13:01:26.181Z,14.72
2023-04-16T13:03:53.020Z,14.86
2023-04-16T13:06:20.054Z,14.84
2023-04-16T13:08:46.429Z,14.70
2023-04-16T13:11:13.017Z,14.64
2023-04-16T13:13:39.473Z,14.71
2023-04-16T13:16:05.876Z,14.53
2023-04-16T13:18:32.779Z,14.55
2023-04-16T13:20:59.181Z,14.72
2023-04-16T13:23:25.665Z,14.76
2023-04-16T13:25:52.004Z,14.54
2023-04-16T13:28:18.351Z,14.49
2023-04-16T13:30:45.784Z,14.14
2023-04-16T13:33:12.183Z,14.04
2023-04-16T13:35:38.986Z,14.21
2023-04-16T13:38:05.433Z,14.32
2023-04-16T13:40:31.821Z,14.53
2023-04-16T13:42:58.127Z,14.67
2023-04-16T13:45:24.583Z,14.77
2023-04-16T13:47:50.976Z,14.91
2023-04-16T13:50:17.438Z,15.06
2023-04-16T13:52:43.737Z,14.92
2023-04-16T13:55:10.198Z,14.70
2023-04-16T13:57:36.614Z,14.67
2023-04-16T14:00:03.180Z,14.54
2023-04-16T14:02:29.644Z,14.46
2023-04-16T14:04:56.034Z,14.28
2023-04-16T14:07:22.341Z,14.13
2023-04-16T14:09:48.680Z,14.26
2023-04-16T14:12:15.030Z,14.35
2023-04-16T14:14:41.416Z,14.51
2023-04-16T14:17:07.784Z,14.56
2023-04-16T14:19:34.120Z,14.46
2023-04-16T14:22:00.505Z,14.50
2023-04-16T14:24:26.841Z,14.56
2023-04-16T14:26:53.170Z,14.47
2023-04-16T14:29:19.542Z,14.47
2023-04-16T14:31:45.959Z,14.62
2023-04-16T14:34:12.289Z,14.81
2023-04-16T14:36:38.629Z,14.89
2023-04-16T14:39:05.003Z,14.81
2023-04-16T14:41:31.412Z,14.66
2023-04-16T14:43:59.074Z,14.46
2023-04-16T14:46:25.469Z,14.25
2023-04-16T14:48:51.838Z,13.75
2023-04-16T14:51:18.335Z,13.65
2023-04-16T14:53:44.680Z,13.83
2023-04-16T14:56:11.199Z,13.93
2023-04-16T14:58:39.283Z,13.87
2023-04-16T15:01:06.893Z,13.89
2023-04-16T15:03:34.721Z,13.77
2023-04-16T15:06:01.678Z,13.72
2023-04-16T15:08:28.035Z,13.66
2023-04-16T15:10:54.351Z,13.63
2023-04-16T15:13:20.665Z,13.72
2023-04-16T15:15:47.294Z,13.62
2023-04-16T15:18:13.671Z,13.72
2023-04-16T15:20:40.068Z,13.67
2023-04-16T15:23:06.399Z,13.67
2023-04-16T15:25:32.875Z,13.63
2023-04-16T15:27:59.230Z,13.67
2023-04-16T15:30:25.660Z,13.49
2023-04-16T15:32:51.978Z,13.40
2023-04-16T15:35:18.372Z,13.29
2023-04-16T15:37:44.750Z,13.21
2023-04-16T15:40:11.225Z,13.16
2023-04-16T15:42:37.824Z,13.18
2023-04-16T15:45:04.533Z,13.27
2023-04-16T15:47:30.847Z,13.31
2023-04-16T15:49:57.280Z,13.14
2023-04-16T15:52:23.699Z,13.22
2023-04-16T15:54:50.133Z,13.16
2023-04-16T15:57:16.533Z,13.28
2023-04-16T15:59:46.193Z,13.28
2023-04-16T16:02:19.415Z,13.30
2023-04-16T16:04:45.981Z,13.06
2023-04-16T16:07:12.713Z,13.03
2023-04-16T16:09:39.023Z,12.98
2023-04-16T16:12:05.579Z,12.92
2023-04-16T16:14:33.013Z,12.90
2023-04-16T16:16:59.392Z,13.02
2023-04-16T16:19:25.683Z,12.99
2023-04-16T16:21:52.027Z,13.06
2023-04-16T16:24:18.410Z,13.00
2023-04-16T16:26:44.760Z,12.95
2023-04-16T16:29:11.351Z,12.98
2023-04-16T16:31:37.973Z,12.87
2023-04-16T16:34:04.441Z,12.84
2023-04-16T16:36:30.813Z,12.68
2023-04-16T16:38:57.174Z,12.66
2023-04-16T16:41:23.539Z,12.56
2023-04-16T16:43:49.871Z,12.58
2023-04-16T16:46:16.280Z,12.57
2023-04-16T16:48:42.604Z,12.55
2023-04-16T16:51:09.992Z,12.64
2023-04-16T16:53:36.332Z,12.56
2023-04-16T16:56:02.674Z,12.56
2023-04-16T16:58:29.007Z,12.61
2023-04-16T17:00:55.363Z,12.54
2023-04-16T17:03:21.759Z,12.56
2023-04-16T17:05:48.166Z,12.48
2023-04-16T17:08:14.504Z,12.45
2023-04-16T17:10:40.779Z,12.34
2023-04-16T17:13:07.142Z,12.36
2023-04-16T17:15:33.498Z,12.23
2023-04-16T17:17:59.838Z,12.25
2023-04-16T17:20:26.233Z,12.27
2023-04-16T17:22:52.548Z,12.24
2023-04-16T17:25:18.878Z,12.22
2023-04-16T17:27:45.197Z,12.20
2023-04-16T17:30:11.738Z,12.15
2023-04-16T17:32:38.123Z,12.14
2023-04-16T17:35:04.929Z,12.01
2023-04-16T17:37:31.360Z,12.02
2023-04-16T17:39:57.715Z,11.97
2023-04-16T17:42:24.025Z,11.94
2023-04-16T17:44:50.381Z,11.86
2023-04-16T17:47:16.768Z,11.70
2023-04-16T17:49:43.140Z,11.68
2023-04-16T17:52:09.464Z,11.50
2023-04-16T17:54:35.778Z,11.36
2023-04-16T17:57:02.207Z,11.18
2023-04-16T17:59:28.576Z,11.05
2023-04-16T18:01:54.983Z,10.98
2023-04-16T18:04:21.620Z,10.79
2023-04-16T18:06:48.031Z,10.54
2023-04-16T18:09:14.348Z,10.45
2023-04-16T18:11:40.720Z,10.47
2023-04-16T18:14:07.072Z,10.42
2023-04-16T18:16:33.412Z,10.36
2023-04-16T18:18:59.747Z,10.24
2023-04-16T18:21:26.092Z,10.18
2023-04-16T18:23:52.415Z,10.19
2023-04-16T18:26:21.120Z,10.14
2023-04-16T18:28:49.224Z,10.16
2023-04-16T18:31:15.601Z,10.22
2023-04-16T18:33:55.545Z,10.26
2023-04-16T18:36:23.460Z,10.22
2023-04-16T18:39:00.270Z,10.26
2023-04-16T18:41:27.818Z,10.20
2023-04-16T18:43:54.156Z,10.25
2023-04-16T18:46:20.560Z,10.24
2023-04-16T18:48:46.902Z,10.17
2023-04-16T18:51:15.440Z,10.21
2023-04-16T18:53:43.263Z,10.21
2023-04-16T18:56:09.801Z,10.08
2023-04-16T18:58:36.133Z,10.08
2023-04-16T19:01:02.598Z,9.97
2023-04-16T19:03:29.143Z,9.98
2023-04-16T19:05:55.738Z,9.97
2023-04-16T19:08:22.116Z,9.90
2023-04-16T19:10:49.710Z,9.92
2023-04-16T19:13:16.406Z,9.95
2023-04-16T19:15:42.818Z,10.00
2023-04-16T19:18:09.133Z,9.99
2023-04-16T19:20:36.814Z,10.01
2023-04-16T19:23:06.576Z,9.90
2023-04-16T19:25:32.970Z,9.97
2023-04-16T19:27:59.432Z,9.93
2023-04-16T19:30:25.850Z,9.81
2023-04-16T19:32:54.676Z,9.83
2023-04-16T19:35:21.910Z,9.76
2023-04-16T19:37:48.302Z,9.78
2023-04-16T19:40:14.691Z,9.62
2023-04-16T19:42:41.054Z,9.60
2023-04-16T19:45:07.735Z,9.53
2023-04-16T19:47:34.070Z,9.62
2023-04-16T19:50:00.440Z,9.60
2023-04-16T19:52:26.800Z,9.56
2023-04-16T19:54:53.109Z,9.57
2023-04-16T19:57:19.420Z,9.46
2023-04-16T19:59:45.737Z,9.39
2023-04-16T20:02:12.103Z,9.41
2023-04-16T20:04:38.495Z,9.36
2023-04-16T20:07:04.846Z,9.33
2023-04-16T20:09:31.177Z,9.22
2023-04-16T20:11:57.511Z,9.13
2023-04-16T20:14:23.886Z,9.06
2023-04-16T20:16:50.244Z,9.02
2023-04-16T20:19:17.094Z,8.92
2023-04-16T20:21:43.595Z,8.85
2023-04-16T20:24:09.963Z,8.90
2023-04-16T20:26:36.384Z,8.83
2023-04-16T20:29:02.924Z,8.90
2023-04-16T20:31:29.335Z,8.83
2023-04-16T20:33:55.748Z,8.86
2023-04-16T20:36:22.130Z,8.93
2023-04-16T20:38:48.438Z,8.87
2023-04-16T20:41:14.784Z,8.84
2023-04-16T20:43:41.231Z,8.76
2023-04-16T20:46:08.606Z,8.84
2023-04-16T20:48:35.089Z,8.70
2023-04-16T20:51:02.758Z,8.72
2023-04-16T20:53:29.778Z,8.76
2023-04-16T20:55:56.091Z,8.71
2023-04-16T20:58:22.399Z,8.74
2023-04-16T21:00:52.609Z,8.82
2023-04-16T21:03:19.979Z,8.73
2023-04-16T21:05:49.729Z,8.71
2023-04-16T21:08:20.120Z,8.71
2023-04-16T21:10:46.848Z,8.57
2023-04-16T21:13:13.466Z,8.62
2023-04-16T21:15:41.243Z,8.66
2023-04-16T21:18:08.321Z,8.58
2023-04-16T21:20:34.895Z,8.56
2023-04-16T21:23:02.413Z,8.52
2023-04-16T21:25:29.414Z,8.54
2023-04-16T21:27:55.971Z,8.51
2023-04-16T21:30:22.376Z,8.56
2023-04-16T21:32:49.016Z,8.52
2023-04-16T21:35:15.360Z,8.47
2023-04-16T21:37:41.724Z,8.34
2023-04-16T21:40:08.366Z,8.33
2023-04-16T21:42:35.542Z,8.29
2023-04-16T21:45:01.904Z,8.36
2023-04-16T21:47:28.244Z,8.42
2023-04-16T21:49:54.597Z,8.36
2023-04-16T21:52:21.002Z,8.41
2023-04-16T21:54:47.560Z,8.33
2023-04-16T21:57:13.862Z,8.34
2023-04-16T21:59:40.539Z,8.32
2023-04-16T22:02:06.918Z,8.27
2023-04-16T22:04:33.320Z,8.24
2023-04-16T22:06:59.653Z,8.14
2023-04-16T22:09:25.982Z,8.15
2023-04-16T22:11:52.292Z,8.21
2023-04-16T22:14:18.644Z,8.14
2023-04-16T22:16:45.040Z,8.17
2023-04-16T22:19:11.601Z,8.11
2023-04-16T22:21:38.182Z,7.98
2023-04-16T22:24:04.771Z,8.02
2023-04-16T22:26:31.114Z,7.96
2023-04-16T22:28:57.466Z,7.86
2023-04-16T22:31:23.828Z,7.81
2023-04-16T22:33:50.183Z,7.82
2023-04-16T22:36:16.528Z,7.72
2023-04-16T22:38:42.890Z,7.72
2023-04-16T22:41:09.244Z,7.76
2023-04-16T22:43:35.562Z,7.72
2023-04-16T22:46:05.721Z,7.73
2023-04-16T22:48:33.669Z,7.79
2023-04-16T22:51:00.007Z,7.73
2023-04-16T22:53:26.326Z,7.71
2023-04-16T22:55:52.598Z,7.78
2023-04-16T22:58:18.991Z,7.74
2023-04-16T23:00:45.414Z,7.85
2023-04-16T23:03:11.776Z,7.72
2023-04-16T23:05:38.207Z,7.69
2023-04-16T23:08:04.685Z,7.71
2023-04-16T23:10:30.996Z,7.63
2023-04-16T23:12:57.308Z,7.72
2023-04-16T23:15:23.936Z,7.72
2023-04-16T23:17:50.368Z,7.68
2023-04-16T23:20:16.818Z,7.64
2023-04-16T23:22:43.150Z,7.59
2023-04-16T23:25:09.784Z,7.65
2023-04-16T23:27:36.590Z,7.66
2023-04-16T23:30:03.569Z,7.74
2023-04-16T23:32:29.939Z,7.66
2023-04-16T23:34:56.314Z,7.57
2023-04-16T23:37:22.669Z,7.61
2023-04-16T23:39:49.019Z,7.58
2023-04-16T23:42:15.326Z,7.54
2023-04-16T23:44:41.777Z,7.45
2023-04-16T23:47:08.144Z,7.41
2023-04-16T23:49:34.509Z,7.37
2023-04-16T23:52:00.874Z,7.42
2023-04-16T23:54:27.286Z,7.40
2023-04-16T23:56:53.700Z,7.39
2023-04-16T23:59:20.045Z,7.28
